Tiempo atmosférico en la estación meteorológica de Os De Balaguer, Lleida (515 m.)



Fecha
DESCASC
Temp. máxima en grados centígrados (hora)
DESCASC
Temp. mínima en grados centígrados (hora)
DESCASC
Temp. media en grados centígrados
DESCASC
Racha de viento máxima en m/sg (hora)
DESCASC
Velocidad máxima media en intervalos de 10 minutos(hora)
DESCASC
Precipitaciones diarias en mm
DESCASC
Precipitaciones de 00:00 a 06:00 en mm
DESCASC
Precipitaciones de 06:00 a 12:00 en mm
DESCASC
Precipitaciones de 12:00 a 18:00 en mm
DESCASC
Precipitaciones de 18:00 a 24:00 en mm
DESCASC
13-02-2020 15.4 (16:10) 8 (07:20) 11.7 8.89 (13:20) 6.11 (12:30) 0 0 0 0 0
12-02-2020 14.4 (14:50) 4.8 (08:20) 9.6 5.56 (15:10) 4.17 (15:10) 0 0 0 0 0
11-02-2020 17 (13:30) 5.5 (08:00) 11.3 8.61 (15:40) 5 (12:30) 0 0 0 0 0
10-02-2020 18.3 (16:00) 4.4 (00:00) 11.3 10.83 (13:50) 5.83 (14:20) 0 0 0 0 0
09-02-2020 13.2 (15:30) 2.4 (00:00) 7.8 7.22 (16:00) 5.56 (14:10) 0 0 0 0 0
08-02-2020 11.1 (16:30) 1.7 (00:00) 6.4 5 (03:40) 4.17 (05:40) 0 0 0 0 0
07-02-2020 11.9 (16:40) 2 (00:00) 6.9 5.83 (09:30) 5 (09:30) 0 0 0 0 0
06-02-2020 14.6 (16:20) 0.2 (00:00) 7.4 6.39 (03:40) 5 (06:30) 0 0 0 0 0
05-02-2020 11.4 (16:40) -1.2 (-00:0) 5.1 5.83 (14:00) 3.89 (14:30) 0 0 0 0 0
04-02-2020 19.2 (14:00) 3.7 (00:00) 11.5 11.39 (14:50) 6.39 (15:20) 0 0 0 0 0
03-02-2020 17.1 (14:00) 6.9 (08:30) 12 4.72 (04:20) 3.33 (04:20) 0 0 0 0 0
02-02-2020 18.1 (17:10) 6 (00:00) 12.1 6.39 (15:40) 5.28 (15:40) 0 0 0 0 0
01-02-2020 17.3 (16:40) 5.2 (00:00) 11.2 6.39 (15:20) 4.72 (15:20) 0 0 0 0 0
31-01-2020 15 (14:10) 5.3 (00:00) 10.2 5.28 (14:10) 3.33 (09:10) 0 0 0 0 0
30-01-2020 15.8 (16:10) 6.1 (00:00) 11 7.5 (13:50) 5 (13:50) 0 0 0 0 0
29-01-2020 16.1 (16:10) 2.7 (00:00) 9.4 8.33 (15:30) 4.17 (17:00) 0 0 0 0 0
28-01-2020 14.8 (14:50) 4.9 (00:00) 9.9 9.17 (14:40) 5 (13:20) 0 0 0 0 0
27-01-2020 8.7 (12:40) -0.6 (-00:0) 4 8.06 (16:30) 4.72 (15:10) 0 0 0 0 0
26-01-2020 11.7 (16:30) 2.6 (00:00) 7.1 6.39 (16:00) 4.17 (16:10) 1.2 0.6 0.6 0 0
25-01-2020 11.4 (16:20) 4.8 (00:00) 8.1 6.11 (13:50) 4.17 (07:50) 0 0 0 0 0
24-01-2020 12.9 (14:30) 2.7 (00:00) 7.8 5.83 (07:30) 4.17 (07:20) 0 0 0 0 0
23-01-2020 8.2 (16:40) 3.8 (00:00) 6 7.5 (04:50) 5 (04:50) 17.8 14.2 3.6 0 0
22-01-2020 12.2 (12:50) 4.1 (00:00) 8.1 19.17 (00:10) 11.11 (00:10) 63.8 13 0 15.4 35.4
21-01-2020 10.9 (09:10) 5 (00:00) 7.9 25 (12:40) 14.72 (16:20) 7.6 0 0.6 0 7
20-01-2020 9.1 (14:10) 1.8 (00:00) 5.5 7.22 (14:00) 3.89 (01:30) 0 0 0 0 0
19-01-2020 9.1 (16:50) 3.3 (00:00) 6.2 10.83 (17:00) 5.28 (17:00) 4 3.4 0.6 0 0
18-01-2020 11.3 (15:40) -0.4 (00:00) 5.5 6.94 (11:00) 4.72 (11:00) 0 0 0 0 0

Gráficas

Temp. máximas Temp. mínimas Temp. medias Precipitaciones Rachas de viento máximas Velocidades máximas media en intervalos de 10 minutos

Datos horarios

Fecha y hora oficial Temperatura (ºC) Velocidad del viento (km/h) Dirección del viento Racha (km/h) Dirección de racha Precipitación (mm) Presión (hPa) Tendencia (hPa) Humedad (%)
2020-02-16 23:00:00 7.1 2 Oeste 6 Norte 0 -- -- 97
2020-02-16 22:00:00 6.4 4 Norte 8 Norte 0 -- -- 96
2020-02-16 21:00:00 6.1 4 Nordeste 9 Nordeste 0 -- -- 97
2020-02-16 20:00:00 6.5 6 Nordeste 10 Este 0 -- -- 97
2020-02-16 19:00:00 7.4 5 Nordeste 8 Este 0 -- -- 98
2020-02-16 18:00:00 9.3 2 Este 6 Sudoeste 0 -- -- 97
2020-02-16 17:00:00 9.8 4 Sudoeste 11 Sudoeste 0 -- -- 96
2020-02-16 16:00:00 10.4 6 Sudoeste 13 Sudoeste 0 -- -- 95
2020-02-16 15:00:00 10 7 Sudoeste 13 Sur 0 -- -- 95
2020-02-16 14:00:00 9.9 10 Sudoeste 15 Sudoeste 0 -- -- 93
2020-02-16 13:00:00 11.5 9 Sudoeste 16 Sudoeste 0 -- -- 85
2020-02-16 12:00:00 11.7 9 Sudoeste 13 Sudoeste 0 -- -- 86
2020-02-16 11:00:00 10.7 12 Sudoeste 18 Sudoeste 0 -- -- 84
2020-02-16 10:00:00 9.4 8 Sudoeste 13 Sudoeste 0 -- -- 87
2020-02-16 09:00:00 6 9 Nordeste 12 Este 0 -- -- 98
2020-02-16 08:00:00 5 4 Nordeste 12 Norte 0 -- -- 95
2020-02-16 07:00:00 4 10 Nordeste 12 Este 0 -- -- 97
2020-02-16 06:00:00 5 8 Nordeste 15 Este 0 -- -- 92
2020-02-16 05:00:00 5.6 10 Nordeste 19 Nordeste 0 -- -- 93
2020-02-16 04:00:00 5.8 13 Nordeste 17 Nordeste 0 -- -- 94
2020-02-16 03:00:00 6.4 9 Nordeste 14 Nordeste 0 -- -- 94
2020-02-16 02:00:00 6 8 Nordeste 13 Este 0 -- -- 95
2020-02-16 01:00:00 4.7 6 Nordeste 13 Nordeste 0 -- -- 96
2020-02-16 00:00:00 4.6 4 Nordeste 9 Este 0 -- -- 93
2020-02-15 23:00:00 5.8 4 Nordeste 12 Este 0 -- -- 93
2020-02-15 22:00:00 6.5 6 Nordeste 11 Este 0 -- -- 93
2020-02-15 21:00:00 6.7 6 Nordeste 9 Nordeste 0 -- -- 92
2020-02-15 20:00:00 8.4 6 Nordeste 9 Nordeste 0 -- -- 88
2020-02-15 19:00:00 11 3 Norte 9 Sudoeste 0 -- -- 83
2020-02-15 18:00:00 13.8 6 Sudoeste 12 Sudoeste 0 -- -- 72
2020-02-15 17:00:00 16 9 Sudoeste 17 Sudoeste 0 -- -- 65
2020-02-15 16:00:00 16.2 13 Sudoeste 20 Sur 0 -- -- 69
2020-02-15 15:00:00 15.9 14 Sudoeste 22 Sudoeste 0 -- -- 72
2020-02-15 14:00:00 15.1 13 Sudoeste 20 Sudoeste 0 -- -- 72
2020-02-15 13:00:00 14.6 10 Sur 14 Sudoeste 0 -- -- 73
2020-02-15 12:00:00 13.6 11 Sudoeste 16 Sudoeste 0 -- -- 76
2020-02-15 11:00:00 12.9 6 Este 15 Este 0 -- -- 76
2020-02-15 10:00:00 9.2 9 Este 14 Este 0 -- -- 88
2020-02-15 09:00:00 5.9 10 Nordeste 15 Nordeste 0 -- -- 96
2020-02-15 08:00:00 4.8 11 Nordeste 17 Nordeste 0 -- -- 97
2020-02-15 07:00:00 4.5 9 Nordeste 18 Nordeste 0 -- -- 97
2020-02-15 06:00:00 4.6 11 Nordeste 17 Nordeste 0 -- -- 97
2020-02-15 05:00:00 4.8 12 Nordeste 18 Nordeste 0 -- -- 98
2020-02-15 04:00:00 5.6 9 Nordeste 19 Nordeste 0 -- -- 98
2020-02-15 03:00:00 4 5 Nordeste 10 Nordeste 0 -- -- 98
2020-02-15 02:00:00 5.5 7 Nordeste 13 Nordeste 0 -- -- 97
2020-02-15 01:00:00 5.9 9 Nordeste 16 Este 0 -- -- 98
2020-02-15 00:00:00 5.9 11 Nordeste 14 Nordeste 0 -- -- 99
2020-02-14 23:00:00 6 7 Nordeste 11 Nordeste 0 -- -- 96
2020-02-14 22:00:00 5.9 7 Nordeste 11 Nordeste 0 -- -- 96
2020-02-14 21:00:00 6.5 7 Nordeste 13 Este 0 -- -- 95
2020-02-14 20:00:00 6.7 8 Nordeste 12 Este 0 -- -- 93
2020-02-14 19:00:00 9.1 5 Norte 10 Sudoeste 0 -- -- 85
2020-02-14 18:00:00 13.2 6 Sudoeste 12 Sudoeste 0 -- -- 72
2020-02-14 17:00:00 14.6 6 Sudoeste 13 Sudoeste 0 -- -- 68
2020-02-14 16:00:00 13.9 8 Sur 16 Sudeste 0 -- -- 71
2020-02-14 15:00:00 13.8 10 Sudoeste 21 Sur 0 -- -- 75
2020-02-14 14:00:00 13 10 Sudeste 19 Sudoeste 0 -- -- 76
2020-02-14 13:00:00 13 4 Este 19 Este 0 -- -- 80
2020-02-14 12:00:00 8.8 12 Este 20 Este 0 -- -- 96
2020-02-14 11:00:00 8 5 Este 13 Nordeste 0 -- -- 97
2020-02-14 10:00:00 7.7 8 Este 14 Este 0 -- -- 97
2020-02-14 09:00:00 5.4 10 Nordeste 13 Nordeste 0 -- -- 100
2020-02-14 08:00:00 5.1 12 Nordeste 15 Norte 0 -- -- 99
2020-02-14 07:00:00 5.3 4 Norte 15 Nordeste 0 -- -- 99
2020-02-14 06:00:00 4 9 Nordeste 12 Este 0 -- -- 96
2020-02-14 05:00:00 4.7 9 Nordeste 15 Este 0 -- -- 95
2020-02-14 04:00:00 5.7 4 Nordeste 13 Este 0 -- -- 95
2020-02-14 03:00:00 5.5 8 Nordeste 15 Este 0 -- -- 93
2020-02-14 02:00:00 6.2 10 Nordeste 16 Este 0 -- -- 91
2020-02-14 01:00:00 6.9 7 Nordeste 10 Sudoeste 0 -- -- 89
2020-02-14 00:00:00 9.4 4 Noroeste 16 Norte 0 -- -- 79
2020-02-13 23:00:00 9.8 6 Norte 11 Norte 0 -- -- 80
2020-02-13 22:00:00 11.3 3 Nordeste 15 Oeste 0 -- -- 75
2020-02-13 21:00:00 12.2 9 Oeste 17 Oeste 0 -- -- 76
2020-02-13 20:00:00 12 2 Oeste 22 Oeste 0 -- -- 80
2020-02-13 19:00:00 12.8 8 Oeste 26 Noroeste 0 -- -- 76
2020-02-13 18:00:00 14.4 12 Oeste 25 Oeste 0 -- -- 71
2020-02-13 17:00:00 15.2 17 Oeste 28 Oeste 0 -- -- 71
2020-02-13 16:00:00 15.1 12 Oeste 26 Sudoeste 0 -- -- 72
2020-02-13 15:00:00 14.7 13 Oeste 29 Oeste 0 -- -- 76
2020-02-13 14:00:00 13.5 14 Sudoeste 32 Sudoeste 0 -- -- 80
2020-02-13 13:00:00 14.9 17 Sudoeste 30 Sudoeste 0 -- -- 78
2020-02-13 12:00:00 13.9 13 Sur 22 Sudoeste 0 -- -- 80
2020-02-13 11:00:00 11.9 11 Sudoeste 15 Sudoeste 0 -- -- 85
2020-02-13 10:00:00 10.8 10 Sudoeste 12 Sur 0 -- -- 88
2020-02-13 09:00:00 9.3 2 Sudoeste 5 Noroeste 0 -- -- 94
2020-02-13 08:00:00 8.1 2 Nordeste 6 Norte 0 -- -- 96
2020-02-13 07:00:00 8.2 3 Nordeste 6 Este 0 -- -- 95
2020-02-13 06:00:00 8.7 3 Nordeste 9 Este 0 -- -- 94
2020-02-13 05:00:00 8.8 6 Nordeste 8 Este 0 -- -- 95
2020-02-13 04:00:00 8.9 3 Nordeste 6 Nordeste 0 -- -- 95
2020-02-13 03:00:00 8.8 6 Este 8 Nordeste 0 -- -- 95
2020-02-13 02:00:00 9 6 Este 9 Nordeste 0 -- -- 95
2020-02-13 01:00:00 9.1 4 Nordeste 10 Nordeste 0 -- -- 95
2020-02-13 00:00:00 9.2 7 Este 11 Nordeste 0 -- -- 94
2020-02-12 23:00:00 9.4 5 Nordeste 9 Nordeste 0 -- -- 93
2020-02-12 22:00:00 9.3 0 Calma 12 Este 0 -- -- 94
2020-02-12 21:00:00 9.5 8 Este 14 Este 0 -- -- 94
2020-02-12 20:00:00 9.6 4 Este 16 Sudeste 0 -- -- 94
2020-02-12 19:00:00 9.4 4 Nordeste 6 Este 0 -- -- 83
2020-02-12 18:00:00 11.3 4 Sur 10 Sudoeste 0 -- -- 75
2020-02-12 17:00:00 11.9 6 Sudoeste 15 Sudoeste 0 -- -- 71
2020-02-12 16:00:00 12.3 12 Sudoeste 20 Sudoeste 0 -- -- 71
2020-02-12 15:00:00 13.9 10 Sur 18 Sur 0 -- -- 70
2020-02-12 14:00:00 13.9 10 Sudeste 17 Sudeste 0 -- -- 69
2020-02-12 13:00:00 13.1 8 Este 15 Este 0 -- -- 70
2020-02-12 12:00:00 11.1 6 Este 18 Este 0 -- -- 80
2020-02-12 11:00:00 10.1 5 Sudeste 10 Sudeste 0 -- -- 85
2020-02-12 10:00:00 8.3 6 Este 14 Nordeste 0 -- -- 94
2020-02-12 09:00:00 5.7 8 Nordeste 10 Nordeste 0 -- -- 99
2020-02-12 08:00:00 5 5 Nordeste 9 Este 0 -- -- 96
2020-02-12 07:00:00 6.2 7 Nordeste 10 Nordeste 0 -- -- 96
2020-02-12 06:00:00 6.7 5 Nordeste 9 Nordeste 0 -- -- 97
2020-02-12 05:00:00 6.6 9 Este 12 Nordeste 0 -- -- 97
2020-02-12 04:00:00 5.4 5 Nordeste 9 Este 0 -- -- 96
2020-02-12 03:00:00 6.7 9 Nordeste 15 Nordeste 0 -- -- 92
2020-02-12 02:00:00 7 9 Nordeste 15 Nordeste 0 -- -- 96
2020-02-12 01:00:00 7.3 6 Nordeste 13 Nordeste 0 -- -- 89
2020-02-12 00:00:00 8.9 7 Nordeste 15 Nordeste 0 -- -- 85
2020-02-11 23:00:00 9.7 6 Nordeste 13 Este 0 -- -- 77
2020-02-11 22:00:00 9.3 4 Nordeste 8 Este 0 -- -- 77
2020-02-11 21:00:00 10.7 4 Norte 12 Norte 0 -- -- 71
2020-02-11 20:00:00 13 5 Noroeste 21 Sudoeste 0 -- -- 64
2020-02-11 19:00:00 13.4 9 Noroeste 31 Oeste 0 -- -- 65
2020-02-11 18:00:00 14.8 8 Oeste 25 Oeste 0 -- -- 61
2020-02-11 17:00:00 15.5 8 Sudoeste 27 Sudoeste 0 -- -- 60
2020-02-11 16:00:00 16.3 8 Sudoeste 31 Noroeste 0 -- -- 62
2020-02-11 15:00:00 16.4 9 Sudoeste 27 Oeste 0 -- -- 62
2020-02-11 14:00:00 15.8 9 Sudoeste 30 Sudoeste 0 -- -- 70
2020-02-11 13:00:00 15.4 14 Sudoeste 26 Sudoeste 0 -- -- 72
2020-02-11 12:00:00 14.2 17 Sudoeste 24 Sudoeste 0 -- -- 74
2020-02-11 11:00:00 12.4 10 Sudoeste 15 Sudoeste 0 -- -- 80
2020-02-11 10:00:00 10.6 6 Sudoeste 15 Este 0 -- -- 87
2020-02-11 09:00:00 6.4 10 Este 15 Este 0 -- -- 95
2020-02-11 08:00:00 5.5 4 Nordeste 10 Este 0 -- -- 94
2020-02-11 07:00:00 6 3 Nordeste 8 Este 0 -- -- 95
2020-02-11 06:00:00 6.3 4 Norte 10 Sudoeste 0 -- -- 89
2020-02-11 05:00:00 10.4 5 Sudoeste 17 Oeste 0 -- -- 77
2020-02-11 04:00:00 9.6 4 Sur 17 Norte 0 -- -- 84
2020-02-11 03:00:00 9.3 5 Oeste 10 Oeste 0 -- -- 79
2020-02-11 02:00:00 10.8 5 Sudoeste 16 Noroeste 0 -- -- 77
2020-02-11 01:00:00 9.4 2 Noroeste 18 Oeste 0 -- -- 85
2020-02-11 00:00:00 12.8 6 Nordeste 10 Nordeste 0 -- -- 67
2020-02-10 23:00:00 13.7 5 Noroeste 15 Noroeste 0 -- -- 66
2020-02-10 22:00:00 13.8 6 Noroeste 19 Oeste 0 -- -- 67
2020-02-10 21:00:00 9.2 4 Este 12 Oeste 0 -- -- 85
2020-02-10 20:00:00 11.2 4 Nordeste 23 Sudoeste 0 -- -- 78
2020-02-10 19:00:00 14.1 12 Oeste 17 Oeste 0 -- -- 70
2020-02-10 18:00:00 16.6 8 Oeste 25 Oeste 0 -- -- 63
2020-02-10 17:00:00 18.1 11 Oeste 29 Oeste 0 -- -- 61
2020-02-10 16:00:00 18.3 11 Oeste 31 Oeste 0 -- -- 59
2020-02-10 15:00:00 17.4 17 Oeste 37 Oeste 0 -- -- 64
2020-02-10 14:00:00 16.5 17 Oeste 39 Sudoeste 0 -- -- 67
2020-02-10 13:00:00 16.1 14 Oeste 34 Oeste 0 -- -- 68
2020-02-10 12:00:00 15.4 16 Oeste 33 Sudoeste 0 -- -- 66
2020-02-10 11:00:00 14.6 14 Oeste 27 Sudoeste 0 -- -- 68
2020-02-10 10:00:00 12.2 12 Oeste 23 Oeste 0 -- -- 76
2020-02-10 09:00:00 6 2 Noroeste 10 Nordeste 0 -- -- 96
2020-02-10 08:00:00 4.8 6 Nordeste 15 Este 0 -- -- 94
2020-02-10 07:00:00 4.4 7 Nordeste 11 Norte 0 -- -- 96
2020-02-10 06:00:00 5.3 8 Nordeste 10 Nordeste 0 -- -- 92
2020-02-10 05:00:00 8 6 Noroeste 11 Noroeste 0 -- -- 86
2020-02-10 04:00:00 6.9 5 Nordeste 9 Este 0 -- -- 89
2020-02-10 03:00:00 8.6 2 Nordeste 12 Noroeste 0 -- -- 85
2020-02-10 02:00:00 9 6 Norte 13 Noroeste 0 -- -- 84
2020-02-10 01:00:00 8.9 4 Norte 12 Noroeste 0 -- -- 85
2020-02-10 00:00:00 9.1 3 Noroeste 13 Oeste 0 -- -- 85
2020-02-09 23:00:00 7.9 8 Noroeste 15 Noroeste 0 -- -- 91
2020-02-09 22:00:00 5.8 4 Sudoeste 8 Nordeste 0 -- -- 95
2020-02-09 21:00:00 6.3 3 Nordeste 12 Este 0 -- -- 91
2020-02-09 20:00:00 7.1 4 Nordeste 10 Este 0 -- -- 90
2020-02-09 19:00:00 9 4 Sudeste 9 Noroeste 0 -- -- 85
2020-02-09 18:00:00 10.4 4 Oeste 18 Sudoeste 0 -- -- 79
2020-02-09 17:00:00 11.2 9 Sudoeste 24 Sudoeste 0 -- -- 75
2020-02-09 16:00:00 12.9 18 Sudoeste 26 Sudoeste 0 -- -- 69
2020-02-09 15:00:00 12.9 15 Sudoeste 24 Sudoeste 0 -- -- 69
2020-02-09 14:00:00 12.4 19 Sudoeste 26 Sudoeste 0 -- -- 73
2020-02-09 13:00:00 11.7 15 Sudoeste 21 Sur 0 -- -- 77
2020-02-09 12:00:00 11.1 12 Sudoeste 23 Sudoeste 0 -- -- 78
2020-02-09 11:00:00 8.7 9 Sudoeste 13 Sudoeste 0 -- -- 86
2020-02-09 10:00:00 7.8 6 Sur 13 Este 0 -- -- 89
2020-02-09 09:00:00 3.9 10 Nordeste 17 Este 0 -- -- 97
2020-02-09 08:00:00 4.2 7 Nordeste 13 Nordeste 0 -- -- 98
2020-02-09 07:00:00 2.5 6 Nordeste 14 Este 0 -- -- 98
2020-02-09 06:00:00 2.7 6 Nordeste 13 Nordeste 0 -- -- 97
2020-02-09 05:00:00 2.8 10 Nordeste 17 Este 0 -- -- 97
2020-02-09 04:00:00 3.2 10 Nordeste 15 Nordeste 0 -- -- 96
2020-02-09 03:00:00 4.1 12 Nordeste 18 Nordeste 0 -- -- 98
2020-02-09 02:00:00 3.4 10 Nordeste 15 Este 0 -- -- 97
2020-02-09 01:00:00 4.6 9 Nordeste 13 Nordeste 0 -- -- 97
2020-02-09 00:00:00 3.9 9 Nordeste 12 Este 0 -- -- 99
2020-02-08 23:00:00 4.1 6 Nordeste 12 Nordeste 0 -- -- 95
2020-02-08 22:00:00 4.4 8 Nordeste 11 Nordeste 0 -- -- 95
2020-02-08 21:00:00 4.7 5 Nordeste 9 Nordeste 0 -- -- 94
2020-02-08 20:00:00 6.7 5 Norte 9 Nordeste 0 -- -- 91
2020-02-08 19:00:00 6 6 Nordeste 12 Nordeste 0 -- -- 91
2020-02-08 18:00:00 8.7 0 Calma 12 Sudoeste 0 -- -- 83
2020-02-08 17:00:00 10.4 9 Sudoeste 16 Sudoeste 0 -- -- 75
2020-02-08 16:00:00 10.8 12 Sudoeste 17 Sudoeste 0 -- -- 75
2020-02-08 15:00:00 10.5 9 Sudoeste 13 Sudoeste 0 -- -- 74
2020-02-08 14:00:00 10.1 4 Sur 8 Sur 0 -- -- 76
2020-02-08 13:00:00 9.7 2 Este 10 Nordeste 0 -- -- 79
2020-02-08 12:00:00 8.1 7 Nordeste 18 Este 0 -- -- 80
2020-02-08 11:00:00 7 13 Este 18 Este 0 -- -- 86
2020-02-08 10:00:00 6.2 9 Nordeste 15 Este 0 -- -- 89
2020-02-08 09:00:00 4.7 10 Nordeste 17 Nordeste 0 -- -- 90
2020-02-08 08:00:00 4.9 5 Nordeste 9 Noroeste 0 -- -- 94
2020-02-08 07:00:00 4.8 5 Noroeste 16 Este 0 -- -- 94
2020-02-08 06:00:00 4.3 12 Nordeste 18 Nordeste 0 -- -- 94
2020-02-08 05:00:00 4.3 9 Nordeste 14 Nordeste 0 -- -- 94
2020-02-08 04:00:00 3.3 9 Nordeste 18 Nordeste 0 -- -- 96
2020-02-08 03:00:00 2.2 9 Nordeste 14 Nordeste 0 -- -- 97
2020-02-08 02:00:00 2.4 9 Nordeste 13 Este 0 -- -- 98
2020-02-08 01:00:00 2.3 6 Nordeste 11 Este 0 -- -- 97
2020-02-08 00:00:00 2.2 6 Nordeste 12 Nordeste 0 -- -- 93
2020-02-07 23:00:00 3 9 Nordeste 14 Este 0 -- -- 96
2020-02-07 22:00:00 2.9 8 Nordeste 12 Este 0 -- -- 96
2020-02-07 21:00:00 2.7 7 Nordeste 10 Este 0 -- -- 94
2020-02-07 20:00:00 3.4 6 Nordeste 9 Nordeste 0 -- -- 91
2020-02-07 19:00:00 5.5 6 Nordeste 8 Norte 0 -- -- 85
2020-02-07 18:00:00 9.8 4 Sudoeste 11 Sudoeste 0 -- -- 73
2020-02-07 17:00:00 11.5 3 Sur 11 Sudoeste 0 -- -- 65
2020-02-07 16:00:00 11 4 Oeste 13 Sudoeste 0 -- -- 70
2020-02-07 15:00:00 10.7 7 Sudoeste 15 Sudoeste 0 -- -- 70
2020-02-07 14:00:00 11.2 11 Sudoeste 18 Sudoeste 0 -- -- 68
2020-02-07 13:00:00 11.1 4 Oeste 13 Este 0 -- -- 67
2020-02-07 12:00:00 9 12 Este 20 Nordeste 0 -- -- 71
2020-02-07 11:00:00 6.1 15 Este 19 Este 0 -- -- 77
2020-02-07 10:00:00 3.9 15 Este 21 Nordeste 0 -- -- 84
2020-02-07 09:00:00 2 17 Nordeste 20 Nordeste 0 -- -- 88
2020-02-07 08:00:00 2.1 13 Nordeste 21 Nordeste 0 -- -- 89
2020-02-07 07:00:00 2.6 15 Nordeste 20 Nordeste 0 -- -- 89
2020-02-07 06:00:00 2.5 14 Nordeste 19 Nordeste 0 -- -- 90
2020-02-07 05:00:00 3 14 Nordeste 19 Nordeste 0 -- -- 91
2020-02-07 04:00:00 3.3 15 Nordeste 20 Nordeste 0 -- -- 90
2020-02-07 03:00:00 3.9 13 Nordeste 18 Nordeste 0 -- -- 89
2020-02-07 02:00:00 3.4 11 Nordeste 15 Nordeste 0 -- -- 94
2020-02-07 01:00:00 3.7 9 Nordeste 15 Nordeste 0 -- -- 88
2020-02-07 00:00:00 4.1 10 Nordeste 15 Nordeste 0 -- -- 87
2020-02-06 23:00:00 2.6 12 Nordeste 15 Este 0 -- -- 92
2020-02-06 22:00:00 2.9 6 Nordeste 11 Este 0 -- -- 90
2020-02-06 21:00:00 5.8 7 Este 15 Este 0 -- -- 81
2020-02-06 20:00:00 7.8 8 Este 19 Sudeste 0 -- -- 71
2020-02-06 19:00:00 8.6 8 Sudeste 14 Este 0 -- -- 69
2020-02-06 18:00:00 11.9 5 Este 9 Este 0 -- -- 55
2020-02-06 17:00:00 14.1 5 Sudeste 14 Sudoeste 0 -- -- 48
2020-02-06 16:00:00 14.3 9 Sudoeste 14 Sudoeste 0 -- -- 49
2020-02-06 15:00:00 13.6 9 Sudoeste 20 Oeste 0 -- -- 54
2020-02-06 14:00:00 13.7 10 Sudoeste 17 Sudoeste 0 -- -- 50
2020-02-06 13:00:00 13.7 7 Sudoeste 15 Sudoeste 0 -- -- 48
2020-02-06 12:00:00 12 5 Este 19 Este 0 -- -- 49
2020-02-06 11:00:00 7.8 15 Este 20 Este 0 -- -- 66
2020-02-06 10:00:00 4.5 13 Este 21 Nordeste 0 -- -- 76
2020-02-06 09:00:00 1.3 12 Nordeste 21 Nordeste 0 -- -- 83
2020-02-06 08:00:00 1.1 13 Nordeste 21 Nordeste 0 -- -- 83
2020-02-06 07:00:00 1.2 13 Nordeste 22 Nordeste 0 -- -- 85
2020-02-06 06:00:00 1.2 17 Nordeste 22 Nordeste 0 -- -- 88
2020-02-06 05:00:00 1.4 16 Nordeste 22 Nordeste 0 -- -- 94
2020-02-06 04:00:00 1.1 14 Nordeste 23 Nordeste 0 -- -- 95
2020-02-06 03:00:00 2 10 Nordeste 18 Nordeste 0 -- -- 95
2020-02-06 02:00:00 1.8 12 Nordeste 16 Nordeste 0 -- -- 97
2020-02-06 01:00:00 0.2 7 Nordeste 10 Nordeste 0 -- -- 97
2020-02-06 00:00:00 1.2 9 Este 14 Nordeste 0 -- -- 94
2020-02-05 23:00:00 3.7 14 Nordeste 19 Nordeste 0 -- -- 94
2020-02-05 22:00:00 2.2 9 Nordeste 16 Este 0 -- -- 95
2020-02-05 21:00:00 1.6 6 Nordeste 9 Este 0 -- -- 95
2020-02-05 20:00:00 3.4 6 Nordeste 10 Este 0 -- -- 89
2020-02-05 19:00:00 6.1 3 Sur 13 Sur 0 -- -- 83
2020-02-05 18:00:00 9.7 5 Sudoeste 13 Sudoeste 0 -- -- 72
2020-02-05 17:00:00 11.3 10 Sudoeste 16 Sur 0 -- -- 67
2020-02-05 16:00:00 11 13 Sudoeste 20 Sudoeste 0 -- -- 67
2020-02-05 15:00:00 11 14 Sudoeste 21 Sudoeste 0 -- -- 68
2020-02-05 14:00:00 10.8 12 Sudoeste 21 Sudoeste 0 -- -- 66
2020-02-05 13:00:00 9.6 10 Sudoeste 18 Sudoeste 0 -- -- 72
2020-02-05 12:00:00 9.4 8 Sudoeste 14 Oeste 0 -- -- 68
2020-02-05 11:00:00 7.9 6 Sudoeste 9 Sudoeste 0 -- -- 72
2020-02-05 10:00:00 4.2 5 Este 11 Este 0 -- -- 90
2020-02-05 09:00:00 -0.4 2 Nordeste 10 Norte 0 -- -- 96
2020-02-05 08:00:00 -1.1 7 Nordeste 12 Nordeste 0 -- -- 96
2020-02-05 07:00:00 -0.8 9 Nordeste 12 Este 0 -- -- 96
2020-02-05 06:00:00 -0.6 5 Nordeste 9 Nordeste 0 -- -- 94
2020-02-05 05:00:00 0.4 3 Nordeste 9 Nordeste 0 -- -- 97
2020-02-05 04:00:00 0 5 Nordeste 14 Nordeste 0 -- -- 95
2020-02-05 03:00:00 1.2 9 Nordeste 13 Nordeste 0 -- -- 90
2020-02-05 02:00:00 2.9 7 Nordeste 13 Nordeste 0 -- -- 87
2020-02-05 01:00:00 2.9 5 Nordeste 9 Sudoeste 0 -- -- 86
2020-02-05 00:00:00 3.7 3 Sudeste 18 Nordeste 0 -- -- 82
2020-02-04 23:00:00 4.8 9 Nordeste 14 Norte 0 -- -- 81
2020-02-04 22:00:00 5.7 5 Nordeste 10 Este 0 -- -- 69
2020-02-04 21:00:00 8.6 5 Este 18 Este 0 -- -- 53
2020-02-04 20:00:00 11.7 5 Sur 29 Noroeste 0 -- -- 42
2020-02-04 19:00:00 13.1 9 Noroeste 29 Noroeste 0 -- -- 40
2020-02-04 18:00:00 15.4 7 Sudoeste 23 Oeste 0 -- -- 44
2020-02-04 12:00:00 16.7 18 Oeste 35 Oeste 0 -- -- 60
2020-02-04 11:00:00 14.2 5 Sudoeste 12 Sudoeste 0 -- -- 73
2020-02-04 10:00:00 10.5 6 Sudoeste 12 Sudoeste 0 -- -- 83
2020-02-04 09:00:00 5.9 5 Nordeste 10 Este 0 -- -- 96
2020-02-04 08:00:00 5 5 Nordeste 12 Nordeste 0 -- -- 95
2020-02-04 07:00:00 6.1 4 Norte 7 Este 0 -- -- 94
2020-02-04 06:00:00 7.6 2 Oeste 10 Sudoeste 0 -- -- 89
2020-02-04 05:00:00 11.2 6 Oeste 18 Nordeste 0 -- -- 76
2020-02-04 04:00:00 9.5 7 Nordeste 12 Nordeste 0 -- -- 92
2020-02-04 03:00:00 9.5 2 Oeste 9 Nordeste 0 -- -- 87
2020-02-04 02:00:00 8.3 5 Nordeste 12 Este 0 -- -- 91
2020-02-04 01:00:00 7.7 3 Norte 10 Este 0 -- -- 99
2020-02-04 00:00:00 6.9 6 Nordeste 10 Este 0 -- -- 98
2020-02-03 23:00:00 7.4 5 Nordeste 13 Este 0 -- -- 100
2020-02-03 22:00:00 7.3 5 Nordeste 7 Nordeste 0 -- -- 98
2020-02-03 21:00:00 7.6 3 Nordeste 7 Nordeste 0 -- -- 98
2020-02-03 20:00:00 8.5 6 Nordeste 8 Norte 0 -- -- 96
2020-02-03 19:00:00 10.2 3 Nordeste 6 Nordeste 0 -- -- 94
2020-02-03 18:00:00 13.6 3 Nordeste 7 Sudoeste 0 -- -- 85
2020-02-03 17:00:00 15.8 5 Sudoeste 15 Sudoeste 0 -- -- 79
2020-02-03 16:00:00 16.2 9 Sudoeste 15 Sudoeste 0 -- -- 78
2020-02-03 15:00:00 16.5 8 Sudeste 15 Sudeste 0 -- -- 75
2020-02-03 14:00:00 17.1 8 Sudoeste 13 Sudoeste 0 -- -- 75
2020-02-03 13:00:00 15.8 7 Sudoeste 10 Sudoeste 0 -- -- 81
2020-02-03 12:00:00 14.3 6 Sudoeste 13 Sudoeste 0 -- -- 85
2020-02-03 11:00:00 13.3 5 Sudoeste 12 Este 0 -- -- 85
2020-02-03 10:00:00 10.5 6 Nordeste 17 Nordeste 0 -- -- 89
2020-02-03 09:00:00 7.8 10 Nordeste 16 Nordeste 0 -- -- 97
2020-02-03 08:00:00 8.3 12 Nordeste 15 Nordeste 0 -- -- 95
2020-02-03 07:00:00 7.1 5 Nordeste 14 Nordeste 0 -- -- 96
2020-02-03 06:00:00 9 11 Nordeste 14 Nordeste 0 -- -- 96
2020-02-03 05:00:00 8.9 9 Nordeste 17 Este 0 -- -- 98
2020-02-03 04:00:00 7.9 8 Nordeste 14 Este 0 -- -- 97
2020-02-03 03:00:00 8.4 6 Nordeste 14 Nordeste 0 -- -- 98
2020-02-03 02:00:00 8.3 8 Nordeste 12 Norte 0 -- -- 96
2020-02-03 01:00:00 8.6 6 Nordeste 10 Nordeste 0 -- -- 97
2020-02-03 00:00:00 9 5 Norte 10 Norte 0 -- -- 94
2020-02-02 23:00:00 9.5 6 Nordeste 10 Norte 0 -- -- 94
2020-02-02 22:00:00 10.8 5 Nordeste 12 Nordeste 0 -- -- 94
2020-02-02 21:00:00 11.1 6 Nordeste 9 Nordeste 0 -- -- 93
2020-02-02 20:00:00 11 6 Nordeste 10 Este 0 -- -- 93
2020-02-02 19:00:00 12 5 Nordeste 9 Nordeste 0 -- -- 88
2020-02-02 18:00:00 16.2 5 Sudoeste 16 Sudoeste 0 -- -- 78
2020-02-02 17:00:00 17.8 10 Sudoeste 19 Sudoeste 0 -- -- 74
2020-02-02 16:00:00 17.6 12 Sudoeste 23 Sudoeste 0 -- -- 73
2020-02-02 15:00:00 16.7 17 Sudoeste 22 Sur 0 -- -- 77
2020-02-02 14:00:00 16.4 15 Sudoeste 21 Sudoeste 0 -- -- 78
2020-02-02 13:00:00 15.2 11 Sudoeste 17 Sudoeste 0 -- -- 80
2020-02-02 12:00:00 14.7 9 Sudoeste 13 Sur 0 -- -- 80
2020-02-02 11:00:00 13.9 8 Sudoeste 14 Este 0 -- -- 80
2020-02-02 10:00:00 10.3 7 Este 13 Nordeste 0 -- -- 91
2020-02-02 09:00:00 6 8 Nordeste 10 Norte 0 -- -- 97
2020-02-02 08:00:00 7.4 8 Nordeste 12 Nordeste 0 -- -- 97
2020-02-02 07:00:00 7.4 8 Nordeste 14 Este 0 -- -- 98
2020-02-02 06:00:00 7.1 6 Nordeste 11 Este 0 -- -- 100
2020-02-02 05:00:00 6.6 6 Nordeste 11 Nordeste 0 -- -- 99
2020-02-02 04:00:00 7.6 8 Nordeste 13 Nordeste 0 -- -- 99
2020-02-02 03:00:00 7.2 9 Nordeste 17 Nordeste 0 -- -- 99
2020-02-02 02:00:00 7.5 9 Nordeste 15 Nordeste 0 -- -- 99
2020-02-02 01:00:00 8 7 Nordeste 13 Nordeste 0 -- -- 100
2020-02-02 00:00:00 7.7 8 Nordeste 12 Este 0 -- -- 98
2020-02-01 23:00:00 8.3 6 Nordeste 12 Nordeste 0 -- -- 97
2020-02-01 22:00:00 8.5 7 Nordeste 12 Nordeste 0 -- -- 95
2020-02-01 21:00:00 8.8 7 Nordeste 14 Este 0 -- -- 96
2020-02-01 20:00:00 9.3 11 Este 14 Este 0 -- -- 95
2020-02-01 19:00:00 10.7 5 Nordeste 9 Este 0 -- -- 92
2020-02-01 18:00:00 14.4 5 Este 16 Sudeste 0 -- -- 83
2020-02-01 17:00:00 17 9 Sudoeste 15 Sudoeste 0 -- -- 76
2020-02-01 16:00:00 15.8 12 Sudoeste 23 Sudoeste 0 -- -- 80
2020-02-01 15:00:00 16.3 15 Sudoeste 22 Sudoeste 0 -- -- 78
2020-02-01 14:00:00 15.9 16 Sudoeste 21 Sudoeste 0 -- -- 78
2020-02-01 13:00:00 14.3 15 Sudoeste 20 Sudoeste 0 -- -- 82
2020-02-01 12:00:00 13.5 9 Sudoeste 14 Sur 0 -- -- 85
2020-02-01 11:00:00 12.5 5 Sur 12 Sudoeste 0 -- -- 88
2020-02-01 10:00:00 11.8 6 Sudoeste 19 Oeste 0 -- -- 87
2020-02-01 09:00:00 10.2 5 Oeste 13 Oeste 0 -- -- 92
2020-02-01 08:00:00 9.5 7 Sudoeste 12 Norte 0 -- -- 97
2020-02-01 07:00:00 7 9 Este 14 Este 0 -- -- 100
2020-02-01 06:00:00 5.6 4 Nordeste 10 Este 0 -- -- 100
2020-02-01 05:00:00 5.2 6 Nordeste 13 Este 0 -- -- 99
2020-02-01 04:00:00 5.4 7 Este 15 Este 0 -- -- 99
2020-02-01 03:00:00 5.4 7 Nordeste 12 Este 0 -- -- 99
2020-02-01 02:00:00 5.5 5 Nordeste 13 Este 0 -- -- 98
2020-02-01 01:00:00 6.3 7 Nordeste 12 Este 0 -- -- 98
2020-02-01 00:00:00 6.7 8 Nordeste 14 Nordeste 0 -- -- 97
2020-01-31 23:00:00 6.4 5 Nordeste 10 Nordeste 0 -- -- 97
2020-01-31 22:00:00 6.6 5 Nordeste 10 Nordeste 0 -- -- 96
2020-01-31 21:00:00 7.4 8 Este 10 Este 0 -- -- 95
2020-01-31 20:00:00 7.3 5 Nordeste 10 Nordeste 0 -- -- 94
2020-01-31 19:00:00 8.3 8 Nordeste 11 Este 0 -- -- 90
2020-01-31 18:00:00 13 0 Calma 13 Sudoeste 0 -- -- 77
2020-01-31 17:00:00 14.4 9 Sudoeste 16 Sudoeste 0 -- -- 73
2020-01-31 16:00:00 14.9 9 Sudoeste 15 Sudoeste 0 -- -- 73
2020-01-31 15:00:00 14.8 8 Sudoeste 19 Sudoeste 0 -- -- 72
2020-01-31 14:00:00 14.4 8 Sur 18 Sur 0 -- -- 71
2020-01-31 13:00:00 14.9 8 Sur 14 Sur 0 -- -- 75
2020-01-31 12:00:00 13.5 7 Este 11 Este 0 -- -- 73
2020-01-31 11:00:00 12.2 4 Este 9 Este 0 -- -- 78
2020-01-31 10:00:00 9 8 Nordeste 16 Nordeste 0 -- -- 93
2020-01-31 09:00:00 6.3 11 Nordeste 15 Nordeste 0 -- -- 99
2020-01-31 08:00:00 5.4 5 Nordeste 9 Nordeste 0 -- -- 97
2020-01-31 07:00:00 6.5 5 Norte 13 Nordeste 0 -- -- 96
2020-01-31 06:00:00 7.1 10 Nordeste 13 Nordeste 0 -- -- 96
2020-01-31 05:00:00 6.1 9 Nordeste 12 Nordeste 0 -- -- 97
2020-01-31 04:00:00 6.9 5 Nordeste 9 Nordeste 0 -- -- 92
2020-01-31 03:00:00 8 7 Nordeste 12 Norte 0 -- -- 90
2020-01-31 02:00:00 7.6 10 Este 14 Nordeste 0 -- -- 91
2020-01-31 01:00:00 8.5 0 Calma 10 Oeste 0 -- -- 87
2020-01-31 00:00:00 9.1 3 Sudeste 13 Norte 0 -- -- 85
2020-01-30 23:00:00 7.3 2 Nordeste 8 Este 0 -- -- 91
2020-01-30 22:00:00 6.7 5 Nordeste 10 Norte 0 -- -- 95
2020-01-30 21:00:00 6.9 4 Nordeste 10 Nordeste 0 -- -- 92
2020-01-30 20:00:00 8.8 3 Nordeste 12 Este 0 -- -- 87
2020-01-30 19:00:00 9.1 3 Sudeste 9 Sudoeste 0 -- -- 85
2020-01-30 18:00:00 13 6 Sudoeste 24 Sudoeste 0 -- -- 76
2020-01-30 17:00:00 15 13 Sudoeste 23 Oeste 0 -- -- 68
2020-01-30 16:00:00 15.3 9 Oeste 26 Sudoeste 0 -- -- 67
2020-01-30 15:00:00 15.4 10 Oeste 21 Oeste 0 -- -- 69
2020-01-30 14:00:00 13.3 12 Sudoeste 27 Sudoeste 0 -- -- 81
2020-01-30 13:00:00 14.4 13 Sudoeste 21 Sur 0 -- -- 76
2020-01-30 12:00:00 12.4 7 Sur 14 Sudoeste 0 -- -- 84
2020-01-30 11:00:00 9.5 3 Sur 7 Nordeste 0 -- -- 89
2020-01-30 10:00:00 8.2 3 Sudeste 14 Este 0 -- -- 90
2020-01-30 09:00:00 7 10 Nordeste 14 Este 0 -- -- 93
2020-01-30 08:00:00 7.1 6 Nordeste 9 Nordeste 0 -- -- 96
2020-01-30 07:00:00 6.1 6 Nordeste 9 Nordeste 0 -- -- 96
2020-01-30 06:00:00 6.8 6 Nordeste 11 Norte 0 -- -- 93
2020-01-30 05:00:00 6.6 4 Nordeste 11 Nordeste 0 -- -- 95
2020-01-30 04:00:00 7.4 8 Nordeste 12 Nordeste 0 -- -- 93
2020-01-30 03:00:00 7.2 8 Nordeste 13 Este 0 -- -- 95
2020-01-30 02:00:00 8.4 10 Este 13 Este 0 -- -- 95
2020-01-30 01:00:00 8.3 7 Nordeste 10 Este 0 -- -- 96
2020-01-30 00:00:00 6.6 5 Nordeste 11 Este 0 -- -- 97
2020-01-29 23:00:00 6.4 5 Nordeste 8 Nordeste 0 -- -- 97
2020-01-29 22:00:00 6.3 4 Nordeste 10 Este 0 -- -- 95
2020-01-29 21:00:00 7.5 4 Nordeste 9 Nordeste 0 -- -- 93
2020-01-29 20:00:00 9.2 3 Nordeste 11 Oeste 0 -- -- 89
2020-01-29 19:00:00 10.7 7 Norte 15 Norte 0 -- -- 89
2020-01-29 18:00:00 13 5 Sudoeste 21 Sudoeste 0 -- -- 80
2020-01-29 17:00:00 14.8 15 Sudoeste 22 Sudoeste 0 -- -- 75
2020-01-29 16:00:00 15.9 10 Oeste 30 Oeste 0 -- -- 68
2020-01-29 15:00:00 14.4 13 Oeste 26 Noroeste 0 -- -- 70
2020-01-29 14:00:00 13.1 14 Oeste 27 Oeste 0 -- -- 74
2020-01-29 13:00:00 11.8 14 Oeste 28 Oeste 0 -- -- 78
2020-01-29 12:00:00 11.1 9 Sudoeste 14 Sudoeste 0 -- -- 74
2020-01-29 11:00:00 8.5 11 Este 16 Este 0 -- -- 72
2020-01-29 10:00:00 6.6 10 Este 17 Nordeste 0 -- -- 80
2020-01-29 09:00:00 3.3 8 Este 15 Norte 0 -- -- 88
2020-01-29 08:00:00 3.2 10 Nordeste 15 Este 0 -- -- 89
2020-01-29 07:00:00 3.7 5 Nordeste 15 Norte 0 -- -- 87
2020-01-29 06:00:00 5.3 5 Nordeste 10 Norte 0 -- -- 86
2020-01-29 05:00:00 7.2 3 Nordeste 12 Norte 0 -- -- 80
2020-01-29 04:00:00 8.8 5 Norte 16 Noroeste 0 -- -- 76
2020-01-29 03:00:00 8.1 6 Noroeste 17 Noroeste 0 -- -- 83
2020-01-29 02:00:00 5.8 5 Nordeste 11 Norte 0 -- -- 87
2020-01-29 01:00:00 7.8 3 Nordeste 18 Noroeste 0 -- -- 81
2020-01-29 00:00:00 6.7 5 Norte 10 Norte 0 -- -- 85
2020-01-28 23:00:00 6.6 4 Nordeste 9 Norte 0 -- -- 87
2020-01-28 22:00:00 7.2 4 Norte 13 Norte 0 -- -- 89
2020-01-28 21:00:00 6.8 6 Nordeste 10 Norte 0 -- -- 90
2020-01-28 20:00:00 7.1 5 Nordeste 13 Oeste 0 -- -- 90
2020-01-28 19:00:00 9.4 3 Este 18 Sudoeste 0 -- -- 83
2020-01-28 18:00:00 10.8 9 Sudoeste 16 Sudoeste 0 -- -- 84
2020-01-28 17:00:00 12.4 9 Sudoeste 20 Sudoeste 0 -- -- 78
2020-01-28 16:00:00 12.9 13 Sudoeste 30 Oeste 0 -- -- 75
2020-01-28 15:00:00 14.3 16 Sudoeste 33 Oeste 0 -- -- 67
2020-01-28 14:00:00 13.6 15 Sudoeste 24 Sudoeste 0 -- -- 71
2020-01-28 13:00:00 12.6 11 Sur 19 Sur 0 -- -- 76
2020-01-28 12:00:00 11.7 13 Sudoeste 19 Sudoeste 0 -- -- 79
2020-01-28 11:00:00 10.4 6 Sudoeste 20 Oeste 0 -- -- 83
2020-01-28 10:00:00 7.9 3 Norte 9 Nordeste 0 -- -- 92
2020-01-28 09:00:00 5.7 6 Nordeste 11 Nordeste 0 -- -- 96
2020-01-28 08:00:00 6 5 Nordeste 10 Nordeste 0 -- -- 92
2020-01-28 07:00:00 6.8 0 Calma 8 Este 0 -- -- 90
2020-01-28 06:00:00 6.8 2 Norte 8 Este 0 -- -- 91
2020-01-28 05:00:00 6.8 7 Nordeste 9 Nordeste 0 -- -- 90
2020-01-28 04:00:00 6.3 4 Nordeste 9 Este 0 -- -- 91
2020-01-28 03:00:00 5.9 4 Este 10 Nordeste 0 -- -- 90
2020-01-28 02:00:00 5.8 6 Nordeste 9 Nordeste 0 -- -- 89
2020-01-28 01:00:00 6.9 7 Este 11 Nordeste 0 -- -- 84
2020-01-28 00:00:00 6.8 8 Nordeste 12 Nordeste 0 -- -- 82
2020-01-27 23:00:00 5.8 7 Nordeste 10 Norte 0 -- -- 86
2020-01-27 22:00:00 5.7 5 Nordeste 8 Norte 0 -- -- 86
2020-01-27 21:00:00 5.6 5 Nordeste 10 Norte 0 -- -- 88
2020-01-27 20:00:00 5.9 7 Nordeste 12 Nordeste 0 -- -- 83
2020-01-27 19:00:00 7.1 3 Sudoeste 18 Oeste 0 -- -- 79
2020-01-27 18:00:00 7.7 9 Oeste 23 Oeste 0 -- -- 76
2020-01-27 17:00:00 8.2 14 Oeste 29 Oeste 0 -- -- 75
2020-01-27 16:00:00 8.4 11 Sudoeste 21 Sudoeste 0 -- -- 84
2020-01-27 15:00:00 8.1 14 Sudoeste 22 Sudoeste 0 -- -- 82
2020-01-27 14:00:00 7.4 12 Sudoeste 20 Sudoeste 0 -- -- 91
2020-01-27 13:00:00 8.6 7 Sudoeste 13 Sudoeste 0 -- -- 85
2020-01-27 12:00:00 7.5 7 Sur 14 Sudoeste 0 -- -- 90
2020-01-27 11:00:00 5.7 4 Sur 15 Este 0 -- -- 100
2020-01-27 10:00:00 2.1 7 Este 15 Este 0 -- -- 100
2020-01-27 09:00:00 -0.3 10 Este 14 Este 0 -- -- 100
2020-01-27 08:00:00 -0.2 8 Nordeste 17 Nordeste 0 -- -- 100
2020-01-27 07:00:00 0.6 10 Nordeste 16 Este 0 -- -- 100
2020-01-27 06:00:00 0.3 9 Nordeste 14 Este 0 -- -- 100
2020-01-27 05:00:00 0.5 5 Nordeste 13 Este 0 -- -- 100
2020-01-27 04:00:00 1 6 Nordeste 12 Este 0 -- -- 99
2020-01-27 03:00:00 1.5 4 Nordeste 10 Nordeste 0 -- -- 99
2020-01-27 02:00:00 3.1 6 Nordeste 10 Nordeste 0 -- -- 99
2020-01-27 01:00:00 3.1 7 Nordeste 10 Este 0 -- -- 99
2020-01-27 00:00:00 2.7 4 Nordeste 8 Nordeste 0 -- -- 98
2020-01-26 23:00:00 3.5 4 Nordeste 5 Nordeste 0 -- -- 95
2020-01-26 22:00:00 6.9 3 Nordeste 9 Oeste 0 -- -- 91
2020-01-26 21:00:00 8.3 4 Oeste 13 Oeste 0 -- -- 88
2020-01-26 20:00:00 5.6 3 Noroeste 7 Este 0 -- -- 97
2020-01-26 19:00:00 7.3 4 Nordeste 13 Oeste 0 -- -- 87
2020-01-26 18:00:00 9.6 10 Oeste 21 Oeste 0 -- -- 80
2020-01-26 17:00:00 11.4 12 Sudoeste 22 Sudoeste 0 -- -- 76
2020-01-26 16:00:00 10.9 13 Oeste 23 Sudoeste 0 -- -- 75
2020-01-26 15:00:00 9.5 9 Noroeste 17 Noroeste 0 -- -- 88
2020-01-26 14:00:00 8.4 7 Sudoeste 15 Sudoeste 0 -- -- 100
2020-01-26 13:00:00 7.5 8 Sudoeste 16 Sudoeste 0 -- -- 100
2020-01-26 12:00:00 7.2 11 Sudoeste 17 Sudoeste 0 -- -- 99
2020-01-26 11:00:00 7.4 12 Sudoeste 15 Sudoeste 0 -- -- 99
2020-01-26 10:00:00 6.8 3 Sudoeste 5 Sudoeste 0 -- -- 99
2020-01-26 09:00:00 6.1 4 Nordeste 8 Nordeste 0 -- -- 99
2020-01-26 08:00:00 6.1 7 Nordeste 13 Nordeste 0 -- -- 98
2020-01-26 07:00:00 6.2 6 Nordeste 9 Nordeste 0.6 -- -- 98
2020-01-26 06:00:00 6.2 5 Este 13 Este 0.6 -- -- 96
2020-01-26 05:00:00 6.6 8 Este 12 Nordeste 0 -- -- 91
2020-01-26 04:00:00 7.1 8 Este 14 Nordeste 0 -- -- 88
2020-01-26 03:00:00 6.9 8 Nordeste 10 Nordeste 0 -- -- 90
2020-01-26 02:00:00 6.3 3 Este 10 Nordeste 0 -- -- 91
2020-01-26 01:00:00 6.9 9 Nordeste 12 Nordeste 0 -- -- 88
2020-01-26 00:00:00 7.3 7 Nordeste 12 Norte 0 -- -- 87
2020-01-25 23:00:00 7.3 4 Nordeste 12 Nordeste 0 -- -- 87
2020-01-25 22:00:00 7.3 6 Nordeste 12 Norte 0 -- -- 88
2020-01-25 21:00:00 8.5 8 Nordeste 13 Este 0 -- -- 82
2020-01-25 20:00:00 8.2 5 Nordeste 12 Nordeste 0 -- -- 83
2020-01-25 19:00:00 8.7 6 Nordeste 12 Nordeste 0 -- -- 82
2020-01-25 18:00:00 9.2 3 Nordeste 10 Este 0 -- -- 78
2020-01-25 17:00:00 10.6 8 Este 17 Este 0 -- -- 71
2020-01-25 16:00:00 10.8 6 Este 17 Este 0 -- -- 71
2020-01-25 15:00:00 10.8 9 Nordeste 19 Este 0 -- -- 76
2020-01-25 14:00:00 10.4 8 Nordeste 22 Este 0 -- -- 75
2020-01-25 13:00:00 9.5 9 Este 14 Este 0 -- -- 76
2020-01-25 12:00:00 8.8 5 Nordeste 15 Nordeste 0 -- -- 79
2020-01-25 11:00:00 7.7 8 Nordeste 15 Norte 0 -- -- 82
2020-01-25 10:00:00 6.2 10 Nordeste 14 Nordeste 0 -- -- 87
2020-01-25 09:00:00 5.4 10 Nordeste 17 Nordeste 0 -- -- 88
2020-01-25 08:00:00 4.9 14 Nordeste 18 Nordeste 0 -- -- 89
2020-01-25 07:00:00 5.2 11 Nordeste 15 Nordeste 0 -- -- 88
2020-01-25 06:00:00 5 12 Nordeste 16 Nordeste 0 -- -- 88
2020-01-25 05:00:00 4.8 13 Nordeste 17 Nordeste 0 -- -- 89
2020-01-25 04:00:00 4.9 10 Nordeste 15 Nordeste 0 -- -- 90
2020-01-25 03:00:00 5.1 11 Nordeste 18 Nordeste 0 -- -- 89
2020-01-25 02:00:00 5.2 12 Nordeste 17 Nordeste 0 -- -- 90
2020-01-25 01:00:00 4.9 12 Nordeste 18 Nordeste 0 -- -- 93
2020-01-25 00:00:00 5.7 14 Nordeste 17 Nordeste 0 -- -- 91
2020-01-24 23:00:00 5.6 8 Nordeste 14 Este 0 -- -- 93
2020-01-24 22:00:00 5.4 7 Nordeste 12 Norte 0 -- -- 95
2020-01-24 21:00:00 5.6 10 Nordeste 14 Nordeste 0 -- -- 93
2020-01-24 20:00:00 5.3 8 Nordeste 13 Nordeste 0 -- -- 95
2020-01-24 19:00:00 5.2 5 Nordeste 8 Nordeste 0 -- -- 94
2020-01-24 18:00:00 8.1 3 Oeste 10 Sudoeste 0 -- -- 83
2020-01-24 17:00:00 10.1 11 Sudoeste 19 Sudoeste 0 -- -- 74
2020-01-24 16:00:00 12.6 12 Sudoeste 15 Sudoeste 0 -- -- 68
2020-01-24 15:00:00 12.8 8 Sudoeste 15 Sudoeste 0 -- -- 69
2020-01-24 14:00:00 12.3 5 Sur 13 Sudoeste 0 -- -- 69
2020-01-24 13:00:00 10.6 10 Sudoeste 15 Sur 0 -- -- 77
2020-01-24 12:00:00 10.9 5 Sudoeste 16 Este 0 -- -- 76
2020-01-24 11:00:00 7.6 12 Este 17 Este 0 -- -- 86
2020-01-24 10:00:00 4.9 12 Este 17 Este 0 -- -- 93
2020-01-24 09:00:00 3.2 10 Nordeste 15 Nordeste 0 -- -- 95
2020-01-24 08:00:00 2.8 12 Nordeste 21 Nordeste 0 -- -- 96
2020-01-24 07:00:00 3.1 9 Nordeste 17 Nordeste 0 -- -- 95
2020-01-24 06:00:00 3.8 13 Nordeste 17 Nordeste 0 -- -- 93
2020-01-24 05:00:00 4 11 Nordeste 16 Nordeste 0 -- -- 94
2020-01-24 04:00:00 4.1 10 Nordeste 14 Nordeste 0 -- -- 95
2020-01-24 03:00:00 5 10 Nordeste 15 Nordeste 0 -- -- 94
2020-01-24 02:00:00 5.5 10 Nordeste 17 Nordeste 0 -- -- 94
2020-01-24 01:00:00 5 9 Nordeste 17 Nordeste 0 -- -- 97
2020-01-24 00:00:00 5 12 Nordeste 19 Nordeste 0 -- -- 96
2020-01-23 23:00:00 4.8 16 Nordeste 19 Nordeste 0 -- -- 97
2020-01-23 22:00:00 5.3 14 Nordeste 17 Nordeste 0 -- -- 96
2020-01-23 21:00:00 4.5 9 Nordeste 16 Nordeste 0 -- -- 98
2020-01-23 20:00:00 4 9 Nordeste 13 Nordeste 0 -- -- 98
2020-01-23 19:00:00 5 8 Nordeste 13 Nordeste 0 -- -- 96
2020-01-23 18:00:00 6.2 9 Nordeste 13 Nordeste 0 -- -- 92
2020-01-23 17:00:00 7.6 8 Este 14 Sudeste 0 -- -- 90
2020-01-23 16:00:00 7 6 Este 17 Este 0 -- -- 99
2020-01-23 15:00:00 7 10 Este 17 Este 0 -- -- 100
2020-01-23 14:00:00 6.3 7 Sudeste 13 Sudeste 0 -- -- 100
2020-01-23 13:00:00 6 4 Sudoeste 9 Sudoeste 0 -- -- 100
2020-01-23 12:00:00 5.4 4 Sudoeste 10 Sudoeste 1.6 -- -- 100
2020-01-23 11:00:00 4.4 8 Sudoeste 13 Sudoeste 0.8 -- -- 100
2020-01-23 10:00:00 4.4 7 Sudoeste 14 Sudoeste 0.2 -- -- 100
2020-01-23 09:00:00 4.5 5 Sur 14 Este 0 -- -- 100
2020-01-23 08:00:00 4.5 3 Este 18 Este 0.6 -- -- 100
2020-01-23 07:00:00 4.7 6 Sudeste 18 Nordeste 0.4 -- -- 100
2020-01-23 06:00:00 4.9 13 Nordeste 21 Nordeste 3 -- -- 100
2020-01-23 05:00:00 4.6 7 Sudoeste 27 Sudoeste 5.2 -- -- 100
2020-01-23 04:00:00 5 10 Noroeste 21 Noroeste 3.4 -- -- 100
2020-01-23 03:00:00 4.6 5 Nordeste 19 Nordeste 0.8 -- -- 100
2020-01-23 02:00:00 4.4 10 Nordeste 22 Este 1.4 -- -- 100
2020-01-23 01:00:00 4.4 11 Norte 24 Nordeste 0.4 -- -- 100
2020-01-23 00:00:00 4.1 13 Norte 25 Norte 2.6 -- -- 100
2020-01-22 23:00:00 4.7 5 Nordeste 21 Noroeste 3.4 -- -- 100
2020-01-22 22:00:00 5 5 Norte 20 Oeste 8.2 -- -- 100
2020-01-22 21:00:00 5.6 6 Nordeste 15 Nordeste 11.4 -- -- 100
2020-01-22 20:00:00 5.4 8 Noroeste 20 Noroeste 5.6 -- -- 100
2020-01-22 19:00:00 5.4 4 Nordeste 21 Este 4.2 -- -- 100
2020-01-22 18:00:00 5.5 12 Nordeste 22 Este 6.6 -- -- 100
2020-01-22 17:00:00 6.6 8 Nordeste 15 Nordeste 5.8 -- -- 99
2020-01-22 16:00:00 7.8 0 Calma 19 Nordeste 3 -- -- 96
2020-01-22 15:00:00 8.9 12 Nordeste 24 Norte 0 -- -- 87
2020-01-22 14:00:00 9.4 13 Este 30 Este 0 -- -- 83
2020-01-22 13:00:00 12.1 5 Sudeste 25 Este 0 -- -- 71
2020-01-22 12:00:00 11.5 17 Este 26 Este 0 -- -- 72
2020-01-22 11:00:00 10 8 Nordeste 15 Norte 0 -- -- 75
2020-01-22 10:00:00 6.1 4 Nordeste 12 Nordeste 0 -- -- 91
2020-01-22 09:00:00 5.3 8 Nordeste 13 Nordeste 0 -- -- 87
2020-01-22 08:00:00 6.2 8 Nordeste 14 Nordeste 0 -- -- 83
2020-01-22 07:00:00 6.2 8 Nordeste 22 Nordeste 0 -- -- 84
2020-01-22 06:00:00 5.9 13 Nordeste 23 Nordeste 0 -- -- 86
2020-01-22 05:00:00 5.5 16 Nordeste 27 Nordeste 0 -- -- 88
2020-01-22 04:00:00 5.3 18 Nordeste 32 Nordeste 0 -- -- 93
2020-01-22 03:00:00 4.7 11 Nordeste 29 Nordeste 0 -- -- 100
2020-01-22 02:00:00 4.8 22 Nordeste 45 Nordeste 4.6 -- -- 100
2020-01-22 01:00:00 5.4 21 Nordeste 69 Este 8.4 -- -- 98
2020-01-22 00:00:00 7 30 Este 73 Este 6 -- -- 94
2020-01-21 23:00:00 8.7 33 Este 71 Este 1 -- -- 82
2020-01-21 22:00:00 10.1 35 Este 70 Este 0 -- -- 71
2020-01-21 21:00:00 10 32 Nordeste 78 Este 0 -- -- 70
2020-01-21 20:00:00 10.5 31 Nordeste 68 Este 0 -- -- 66
2020-01-21 19:00:00 10.2 37 Nordeste 76 Este 0 -- -- 67
2020-01-21 18:00:00 10 32 Este 69 Nordeste 0 -- -- 67
2020-01-21 17:00:00 10.6 43 Este 86 Este 0 -- -- 64
2020-01-21 16:00:00 10.3 52 Este 84 Este 0 -- -- 65
2020-01-21 15:00:00 10.1 43 Este 75 Este 0 -- -- 67
2020-01-21 14:00:00 10.4 45 Este 81 Nordeste 0 -- -- 66
2020-01-21 13:00:00 10.4 42 Este 90 Nordeste 0 -- -- 67
2020-01-21 12:00:00 9.9 47 Este 82 Este 0 -- -- 68
2020-01-21 11:00:00 9.2 38 Este 86 Este 0.6 -- -- 73
2020-01-21 10:00:00 10.2 42 Este 78 Este 0 -- -- 65
2020-01-21 09:00:00 10.8 43 Este 85 Este 0 -- -- 58
2020-01-21 08:00:00 10.4 23 Nordeste 51 Este 0 -- -- 58
2020-01-21 07:00:00 10.2 23 Nordeste 60 Nordeste 0 -- -- 58
2020-01-21 06:00:00 10.1 33 Nordeste 58 Este 0 -- -- 59
2020-01-21 05:00:00 8.9 16 Nordeste 37 Este 0 -- -- 58
2020-01-21 04:00:00 7.9 3 Nordeste 17 Nordeste 0 -- -- 60
2020-01-21 03:00:00 7.4 6 Nordeste 21 Este 0 -- -- 62
2020-01-21 02:00:00 5.2 4 Sudoeste 12 Norte 0 -- -- 71
2020-01-21 01:00:00 5.5 3 Sudoeste 9 Sudoeste 0 -- -- 69
2020-01-21 00:00:00 5 4 Sudoeste 8 Sudoeste 0 -- -- 72
2020-01-20 23:00:00 4.8 5 Nordeste 9 Nordeste 0 -- -- 77
2020-01-20 22:00:00 4.6 3 Norte 9 Este 0 -- -- 76
2020-01-20 21:00:00 4.1 4 Nordeste 7 Nordeste 0 -- -- 80
2020-01-20 20:00:00 4.9 3 Nordeste 13 Este 0 -- -- 74
2020-01-20 19:00:00 4.1 5 Nordeste 8 Nordeste 0 -- -- 79
2020-01-20 18:00:00 5.6 2 Noroeste 5 Norte 0 -- -- 73
2020-01-20 17:00:00 6.2 2 Sudoeste 8 Sur 0 -- -- 69
2020-01-20 16:00:00 6.4 8 Sudoeste 12 Sudoeste 0 -- -- 68
2020-01-20 15:00:00 6.8 4 Sudoeste 19 Este 0 -- -- 63
2020-01-20 14:00:00 8.8 13 Este 26 Este 0 -- -- 55
2020-01-20 13:00:00 6 5 Oeste 15 Sudoeste 0 -- -- 70
2020-01-20 12:00:00 7.1 7 Sur 16 Nordeste 0 -- -- 63
2020-01-20 11:00:00 7 13 Nordeste 21 Nordeste 0 -- -- 43
2020-01-20 10:00:00 5.6 8 Nordeste 14 Nordeste 0 -- -- 40
2020-01-20 09:00:00 3.6 8 Nordeste 12 Nordeste 0 -- -- 45
2020-01-20 08:00:00 1.8 7 Este 10 Nordeste 0 -- -- 64
2020-01-20 07:00:00 3.9 6 Nordeste 12 Nordeste 0 -- -- 41
2020-01-20 06:00:00 3.7 7 Nordeste 12 Nordeste 0 -- -- 48
2020-01-20 05:00:00 3.3 8 Nordeste 11 Este 0 -- -- 43
2020-01-20 04:00:00 3.3 4 Nordeste 12 Nordeste 0 -- -- 50
2020-01-20 03:00:00 3.7 7 Nordeste 19 Nordeste 0 -- -- 44
2020-01-20 02:00:00 4.6 10 Nordeste 24 Nordeste 0 -- -- 37
2020-01-20 01:00:00 2.5 12 Nordeste 19 Nordeste 0 -- -- 49
2020-01-20 00:00:00 3.3 10 Nordeste 21 Nordeste 0 -- -- 46
2020-01-19 23:00:00 3.9 10 Nordeste 27 Nordeste 0 -- -- 42
2020-01-19 22:00:00 5 14 Nordeste 24 Nordeste 0 -- -- 36
2020-01-19 21:00:00 5.7 14 Nordeste 26 Nordeste 0 -- -- 34
2020-01-19 20:00:00 6 14 Nordeste 27 Nordeste 0 -- -- 34
2020-01-19 19:00:00 6.7 15 Nordeste 29 Nordeste 0 -- -- 32
2020-01-19 18:00:00 7.9 14 Nordeste 34 Nordeste 0 -- -- 31
2020-01-19 17:00:00 9 19 Nordeste 39 Nordeste 0 -- -- 34
2020-01-19 16:00:00 7.6 9 Nordeste 24 Nordeste 0 -- -- 48
2020-01-19 15:00:00 6.5 9 Sudoeste 15 Sudoeste 0 -- -- 94
2020-01-19 14:00:00 6.4 9 Sudoeste 14 Sudoeste 0 -- -- 93
2020-01-19 13:00:00 6.9 8 Sudoeste 16 Sudoeste 0 -- -- 95
2020-01-19 12:00:00 7.7 8 Sudoeste 12 Sur 0 -- -- 91
2020-01-19 11:00:00 5.9 4 Nordeste 8 Nordeste 0 -- -- 97
2020-01-19 10:00:00 4.7 5 Norte 12 Sudeste 0 -- -- 97
2020-01-19 09:00:00 4.6 4 Nordeste 17 Norte 0.2 -- -- 96
2020-01-19 08:00:00 4.9 6 Sudeste 13 Sudeste 0.4 -- -- 96
2020-01-19 07:00:00 5.3 5 Nordeste 15 Nordeste 0 -- -- 93
2020-01-19 06:00:00 5.2 4 Nordeste 13 Norte 1.6 -- -- 96
2020-01-19 05:00:00 5 5 Nordeste 25 Norte 0.6 -- -- 91
2020-01-19 04:00:00 5.7 14 Nordeste 22 Nordeste 1.2 -- -- 89
2020-01-19 03:00:00 6.8 0 Calma 15 Oeste 0 -- -- 76
2020-01-19 02:00:00 6.6 8 Nordeste 19 Nordeste 0 -- -- 71
2020-01-19 01:00:00 7 12 Nordeste 19 Nordeste 0 -- -- 68
2020-01-19 00:00:00 6.2 11 Nordeste 17 Nordeste 0 -- -- 72
2020-01-18 23:00:00 6.6 6 Nordeste 12 Nordeste 0 -- -- 71
2020-01-18 22:00:00 6.6 6 Nordeste 11 Nordeste 0 -- -- 73
2020-01-18 21:00:00 7.1 8 Nordeste 15 Nordeste 0 -- -- 70
2020-01-18 20:00:00 6.3 5 Nordeste 10 Norte 0 -- -- 82
2020-01-18 19:00:00 7.6 6 Nordeste 9 Este 0 -- -- 66
2020-01-18 18:00:00 7.8 4 Nordeste 5 Nordeste 0 -- -- 70
2020-01-18 17:00:00 9.9 2 Noroeste 10 Sudoeste 0 -- -- 57
2020-01-18 16:00:00 10.9 6 Sudoeste 15 Sur 0 -- -- 52
2020-01-18 15:00:00 10.8 6 Sur 17 Sudoeste 0 -- -- 54
2020-01-18 14:00:00 10.5 6 Sur 15 Sudoeste 0 -- -- 54
2020-01-18 13:00:00 9.6 5 Sur 17 Sur 0 -- -- 57
2020-01-18 12:00:00 8.4 9 Sudoeste 23 Este 0 -- -- 66
2020-01-18 11:00:00 5.1 17 Nordeste 25 Este 0 -- -- 72
2020-01-18 10:00:00 2.3 11 Nordeste 15 Nordeste 0 -- -- 87
2020-01-18 09:00:00 1.3 5 Nordeste 12 Nordeste 0 -- -- 88
2020-01-18 08:00:00 1.5 6 Norte 14 Nordeste 0 -- -- 87
2020-01-18 07:00:00 1.5 11 Nordeste 17 Nordeste 0 -- -- 88
2020-01-18 06:00:00 0.7 9 Nordeste 15 Nordeste 0 -- -- 90
2020-01-18 05:00:00 0.9 13 Nordeste 18 Nordeste 0 -- -- 86
2020-01-18 04:00:00 0.6 9 Nordeste 16 Este 0 -- -- 84
2020-01-18 03:00:00 -0.2 9 Nordeste 14 Este 0 -- -- 83
2020-01-18 02:00:00 2 6 Este 19 Norte 0 -- -- 75
2020-01-18 01:00:00 4.5 13 Nordeste 21 Nordeste 0 -- -- 65
2020-01-18 00:00:00 3 6 Nordeste 18 Nordeste 0 -- -- 70